createdAt,value
2024-04-09T15:31:05.695Z,2.67
2024-04-09T15:33:53.779Z,3.70
2024-04-09T15:36:40.324Z,3.60
2024-04-09T15:39:26.502Z,2.73
2024-04-09T15:42:11.821Z,3.10
2024-04-09T15:44:57.233Z,14.00
2024-04-09T15:47:43.275Z,20.73
2024-04-09T15:50:28.810Z,29.93
2024-04-09T15:53:14.272Z,20.40
2024-04-09T15:55:59.694Z,20.20
2024-04-09T15:58:45.123Z,18.33
2024-04-09T16:01:33.690Z,17.60
2024-04-09T16:04:19.386Z,15.17
2024-04-09T16:07:04.882Z,13.93
2024-04-09T16:09:50.796Z,14.23
2024-04-09T16:12:36.717Z,12.03
2024-04-09T16:15:22.128Z,10.83
2024-04-09T16:18:07.891Z,10.00
2024-04-09T16:21:01.309Z,9.10
2024-04-09T16:23:47.720Z,9.00
2024-04-09T16:26:33.374Z,8.63
2024-04-09T16:29:18.857Z,9.47
2024-04-09T16:32:05.416Z,11.73
2024-04-09T16:34:51.505Z,10.73
2024-04-09T16:37:38.376Z,10.87
2024-04-09T16:40:24.471Z,10.27
2024-04-09T16:43:10.389Z,10.03
2024-04-09T16:45:56.780Z,9.27
2024-04-09T16:48:43.264Z,8.87
2024-04-09T16:51:28.686Z,7.63
2024-04-09T16:54:17.339Z,8.30
2024-04-09T16:57:03.170Z,6.63
2024-04-09T16:59:48.389Z,7.13
2024-04-09T17:02:33.706Z,6.47
2024-04-09T17:05:19.404Z,6.60
2024-04-09T17:08:05.269Z,6.27
2024-04-09T17:10:58.537Z,5.70
2024-04-09T17:13:47.323Z,5.80
2024-04-09T17:16:33.875Z,5.00
2024-04-09T17:19:19.248Z,5.60
2024-04-09T17:22:04.754Z,4.97
2024-04-09T17:24:50.776Z,4.50
2024-04-09T17:27:36.116Z,4.80
2024-04-09T17:30:22.533Z,3.63
2024-04-09T17:33:08.466Z,3.83
2024-04-09T17:35:54.056Z,3.90
2024-04-09T17:38:39.430Z,3.63
2024-04-09T17:41:26.067Z,3.37
2024-04-09T17:44:11.791Z,3.80
2024-04-09T17:46:57.613Z,4.43
2024-04-09T17:49:43.010Z,3.53
2024-04-09T17:52:28.782Z,3.70
2024-04-09T17:55:13.889Z,2.80
2024-04-09T17:58:00.188Z,3.33
2024-04-09T18:00:46.772Z,3.60
2024-04-09T18:03:32.043Z,3.50
2024-04-09T18:06:19.438Z,3.30
2024-04-09T18:09:06.041Z,2.83
2024-04-09T18:11:51.771Z,3.30
2024-04-09T18:14:37.473Z,3.30
2024-04-09T18:17:26.969Z,3.20
2024-04-09T18:20:12.708Z,2.90
2024-04-09T18:22:58.315Z,2.27
2024-04-09T18:25:57.060Z,3.13
2024-04-09T18:28:49.699Z,2.77
2024-04-09T18:31:37.139Z,2.63
2024-04-09T18:34:22.794Z,2.40
2024-04-09T18:37:11.895Z,2.87
2024-04-09T18:40:01.982Z,2.90
2024-04-09T18:42:50.231Z,2.20
2024-04-09T18:45:35.910Z,2.07
2024-04-09T18:48:21.643Z,2.40
2024-04-09T18:51:12.188Z,2.40
2024-04-09T18:54:01.306Z,2.00
2024-04-09T18:56:48.353Z,2.27
2024-04-09T18:59:35.068Z,1.77
2024-04-09T19:02:24.576Z,2.40
2024-04-09T19:05:10.473Z,1.80
2024-04-09T19:07:57.770Z,2.10
2024-04-09T19:10:44.587Z,2.00
2024-04-09T19:13:29.868Z,2.30
2024-04-09T19:16:15.413Z,2.57
2024-04-09T19:19:00.799Z,1.60
2024-04-09T19:21:47.131Z,1.80
2024-04-09T19:24:33.048Z,2.07
2024-04-09T19:27:18.273Z,1.47
2024-04-09T19:30:05.017Z,1.70
2024-04-09T19:32:50.686Z,1.57
2024-04-09T19:35:38.303Z,1.90
2024-04-09T19:38:24.255Z,1.53
2024-04-09T19:41:09.928Z,1.60
2024-04-09T19:44:03.236Z,2.00
2024-04-09T19:46:54.329Z,1.67
2024-04-09T19:49:40.667Z,1.83
2024-04-09T19:52:26.048Z,1.60
2024-04-09T19:55:11.479Z,1.43
2024-04-09T19:57:57.133Z,1.93
2024-04-09T20:00:42.452Z,1.33
2024-04-09T20:03:28.298Z,1.40
2024-04-09T20:06:13.856Z,1.60
2024-04-09T20:08:59.466Z,1.20
2024-04-09T20:11:44.939Z,1.30
2024-04-09T20:14:30.587Z,1.40
2024-04-09T20:17:16.664Z,1.67
2024-04-09T20:20:02.119Z,1.40
2024-04-09T20:22:47.504Z,1.30
2024-04-09T20:25:33.317Z,1.33
2024-04-09T20:28:18.508Z,1.23
2024-04-09T20:31:06.063Z,2.07
2024-04-09T20:33:51.752Z,1.40
2024-04-09T20:36:38.060Z,1.27
2024-04-09T20:39:25.620Z,1.40
2024-04-09T20:42:11.548Z,1.03
2024-04-09T20:44:56.852Z,1.27
2024-04-09T20:47:42.857Z,1.00
2024-04-09T20:50:28.515Z,1.20
2024-04-09T20:53:13.958Z,1.00
2024-04-09T20:56:04.726Z,1.37
2024-04-09T20:58:50.507Z,1.10
2024-04-09T21:01:39.942Z,1.20
2024-04-09T21:04:25.342Z,0.83
2024-04-09T21:07:11.288Z,1.10
2024-04-09T21:09:56.820Z,1.20
2024-04-09T21:12:43.141Z,1.00
2024-04-09T21:15:31.160Z,1.20
2024-04-09T21:18:18.716Z,1.30
2024-04-09T21:21:06.366Z,0.83
2024-04-09T21:23:53.094Z,0.93
2024-04-09T21:26:38.982Z,1.30
2024-04-09T21:29:27.346Z,0.90
2024-04-09T21:32:14.097Z,1.07
2024-04-09T21:34:59.488Z,1.30
2024-04-09T21:37:45.099Z,0.90
2024-04-09T21:40:30.390Z,0.97
2024-04-09T21:43:16.184Z,0.97
2024-04-09T21:46:02.117Z,1.33
2024-04-09T21:48:47.699Z,1.20
2024-04-09T21:51:32.955Z,0.80
2024-04-09T21:54:18.480Z,1.17
2024-04-09T21:57:04.240Z,0.90
2024-04-09T21:59:49.815Z,1.07
2024-04-09T22:02:35.258Z,1.07
2024-04-09T22:05:21.314Z,0.80
2024-04-09T22:08:06.967Z,0.97
2024-04-09T22:10:52.635Z,1.00
2024-04-09T22:13:37.862Z,1.10
2024-04-09T22:16:23.720Z,1.23
2024-04-09T22:19:09.321Z,0.90
2024-04-09T22:21:54.510Z,0.90
2024-04-09T22:24:39.963Z,1.10
2024-04-09T22:27:25.592Z,0.90
2024-04-09T22:30:11.894Z,0.67
2024-04-09T22:32:57.400Z,1.00
2024-04-09T22:35:42.756Z,0.87
2024-04-09T22:38:28.448Z,1.37
2024-04-09T22:41:14.256Z,1.00
2024-04-09T22:43:59.347Z,0.93
2024-04-09T22:46:44.903Z,1.00
2024-04-09T22:49:30.960Z,1.00
2024-04-09T22:52:16.525Z,1.30
2024-04-09T22:55:02.056Z,1.37
2024-04-09T22:57:47.594Z,1.10
2024-04-09T23:00:33.132Z,1.10
2024-04-09T23:03:18.628Z,1.00
2024-04-09T23:06:06.145Z,0.80
2024-04-09T23:08:51.939Z,1.10
2024-04-09T23:11:37.037Z,1.10
2024-04-09T23:14:22.453Z,0.80
2024-04-09T23:17:08.910Z,1.07
2024-04-09T23:19:54.700Z,1.30
2024-04-09T23:22:40.232Z,0.93
2024-04-09T23:25:26.778Z,1.10
2024-04-09T23:28:12.531Z,0.83
2024-04-09T23:30:57.721Z,1.10
2024-04-09T23:33:43.271Z,1.20
2024-04-09T23:36:28.659Z,1.20
2024-04-09T23:39:13.998Z,0.90
2024-04-09T23:42:05.753Z,0.90
2024-04-09T23:44:52.977Z,0.73
2024-04-09T23:47:38.851Z,0.97
2024-04-09T23:50:24.563Z,1.60
2024-04-09T23:53:10.086Z,0.87
2024-04-09T23:55:57.967Z,0.97
2024-04-09T23:58:46.546Z,1.00
